Aviation Digital Data Service (ADDS)

Output produced by METARs form (0455 UTC 20 October 2017)
found at http://aviationweather.gov/adds/metars/
 
KLAN 192340Z 2000/2024 26005KT P6SM SKC 
     FM201500 20008KT P6SM SKC